createdAt,value
2018-09-11T00:02:41.568Z,16.93
2018-09-11T00:05:10.550Z,14.90
2018-09-11T00:07:39.553Z,15.30
2018-09-11T00:10:08.772Z,14.67
2018-09-11T01:02:40.741Z,16.90
2018-09-11T01:05:09.708Z,16.00
2018-09-11T01:07:38.687Z,14.97
2018-09-11T02:02:44.264Z,18.50
2018-09-11T02:05:13.258Z,15.27
2018-09-11T02:07:43.141Z,13.33
2018-09-11T03:03:19.505Z,17.07
2018-09-11T03:05:48.514Z,16.57
2018-09-11T03:08:17.681Z,14.70
2018-09-11T04:03:16.560Z,17.13
2018-09-11T04:05:45.570Z,14.97
2018-09-11T04:08:14.557Z,14.30
2018-09-11T04:10:43.745Z,13.17
2018-09-11T05:02:39.945Z,12.73
2018-09-11T05:05:08.988Z,11.53
2018-09-11T05:07:38.062Z,9.70
2018-09-11T05:10:08.365Z,8.87
2018-09-11T06:02:36.962Z,8.60
2018-09-11T06:05:06.289Z,8.57
2018-09-11T06:07:35.357Z,7.17
2018-09-11T06:10:05.473Z,6.33
2018-09-11T07:02:39.867Z,5.47
2018-09-11T07:05:08.773Z,5.27
2018-09-11T07:07:37.636Z,5.60
2018-09-11T07:10:06.912Z,4.83
2018-09-11T08:02:36.985Z,5.10
2018-09-11T08:05:05.846Z,5.07
2018-09-11T08:07:34.652Z,4.90
2018-09-11T08:10:03.722Z,5.10
2018-09-11T09:02:59.949Z,3.73
2018-09-11T09:05:28.995Z,4.17
2018-09-11T09:08:13.568Z,4.07
2018-09-11T10:03:42.516Z,4.70
2018-09-11T10:06:11.330Z,4.30
2018-09-11T10:08:40.169Z,3.93
2018-09-11T11:02:37.312Z,4.10
2018-09-11T11:05:06.231Z,4.43
2018-09-11T11:07:35.073Z,4.53
2018-09-11T11:10:04.147Z,4.60
2018-09-11T12:02:37.853Z,15.73
2018-09-11T12:05:06.761Z,9.43
2018-09-11T12:07:35.610Z,37.23
2018-09-11T12:10:04.686Z,8.50
2018-09-11T13:02:43.968Z,9.90
2018-09-11T13:05:12.834Z,5.27
2018-09-11T13:07:41.652Z,5.93
2018-09-11T13:10:10.801Z,5.10
2018-09-11T14:02:46.058Z,4.23
2018-09-11T14:05:15.079Z,6.07
2018-09-11T14:07:44.089Z,3.83
2018-09-11T15:02:47.802Z,4.07
2018-09-11T15:05:16.899Z,3.90
2018-09-11T15:07:45.900Z,3.83
2018-09-11T15:10:15.174Z,3.87
2018-09-11T16:03:05.035Z,4.37
2018-09-11T16:05:34.049Z,4.27
2018-09-11T16:08:03.055Z,4.30
2018-09-11T17:02:36.554Z,5.50
2018-09-11T17:05:05.578Z,5.30
2018-09-11T17:07:34.571Z,4.90
2018-09-11T17:10:03.762Z,4.70
2018-09-11T18:02:39.700Z,5.30
2018-09-11T18:05:08.796Z,5.53
2018-09-11T18:07:37.865Z,6.00
2018-09-11T18:10:07.984Z,5.37
2018-09-11T19:02:40.225Z,6.13
2018-09-11T19:05:09.270Z,6.23
2018-09-11T19:07:38.299Z,6.67
2018-09-11T20:02:38.095Z,4.53
2018-09-11T20:05:08.886Z,5.60
2018-09-11T20:07:38.169Z,4.80
2018-09-11T21:02:37.067Z,4.80
2018-09-11T21:05:06.135Z,4.60
2018-09-11T21:07:38.049Z,4.90
2018-09-11T23:02:36.766Z,4.10
2018-09-11T23:05:16.246Z,4.30
2018-09-11T23:07:45.417Z,3.80
